sensor_id;sensor_type;location;lat;lon;timestamp;temperature;humidity
19031;DHT22;9648;51.130;13.978;2023-04-19T00:00:45;8.40;99.90
19031;DHT22;9648;51.130;13.978;2023-04-19T00:03:12;8.40;99.90
19031;DHT22;9648;51.130;13.978;2023-04-19T00:05:39;8.40;99.90
19031;DHT22;9648;51.130;13.978;2023-04-19T00:08:06;8.40;99.90
19031;DHT22;9648;51.130;13.978;2023-04-19T00:10:34;8.30;99.90
19031;DHT22;9648;51.130;13.978;2023-04-19T00:13:02;8.30;99.90
19031;DHT22;9648;51.130;13.978;2023-04-19T00:15:28;8.30;99.90
19031;DHT22;9648;51.130;13.978;2023-04-19T00:17:55;8.30;99.90
19031;DHT22;9648;51.130;13.978;2023-04-19T00:20:22;8.30;99.90
19031;DHT22;9648;51.130;13.978;2023-04-19T00:22:49;8.30;99.90
19031;DHT22;9648;51.130;13.978;2023-04-19T00:25:18;8.30;99.90
19031;DHT22;9648;51.130;13.978;2023-04-19T00:27:46;8.20;99.90
19031;DHT22;9648;51.130;13.978;2023-04-19T00:30:16;8.20;99.90
19031;DHT22;9648;51.130;13.978;2023-04-19T00:32:46;8.20;99.90
19031;DHT22;9648;51.130;13.978;2023-04-19T00:35:12;8.20;99.90
19031;DHT22;9648;51.130;13.978;2023-04-19T00:37:39;8.20;99.90
19031;DHT22;9648;51.130;13.978;2023-04-19T00:40:09;8.20;99.90
19031;DHT22;9648;51.130;13.978;2023-04-19T00:42:36;8.20;99.90
19031;DHT22;9648;51.130;13.978;2023-04-19T00:45:10;8.20;99.90
19031;DHT22;9648;51.130;13.978;2023-04-19T00:47:37;8.10;99.90
19031;DHT22;9648;51.130;13.978;2023-04-19T00:50:07;8.10;99.90
19031;DHT22;9648;51.130;13.978;2023-04-19T00:52:34;8.10;99.90
19031;DHT22;9648;51.130;13.978;2023-04-19T00:55:01;8.10;99.90
19031;DHT22;9648;51.130;13.978;2023-04-19T00:57:28;8.10;99.90
19031;DHT22;9648;51.130;13.978;2023-04-19T00:59:55;8.10;99.90
19031;DHT22;9648;51.130;13.978;2023-04-19T01:02:24;8.00;99.90
19031;DHT22;9648;51.130;13.978;2023-04-19T01:04:52;8.00;99.90
19031;DHT22;9648;51.130;13.978;2023-04-19T01:07:19;8.00;99.90
19031;DHT22;9648;51.130;13.978;2023-04-19T01:09:46;8.00;99.90
19031;DHT22;9648;51.130;13.978;2023-04-19T01:12:12;8.00;99.90
19031;DHT22;9648;51.130;13.978;2023-04-19T01:14:39;7.90;99.90
19031;DHT22;9648;51.130;13.978;2023-04-19T01:17:06;7.90;99.90
19031;DHT22;9648;51.130;13.978;2023-04-19T01:19:35;7.80;99.90
19031;DHT22;9648;51.130;13.978;2023-04-19T01:22:06;7.80;99.90
19031;DHT22;9648;51.130;13.978;2023-04-19T01:24:34;7.80;99.90
19031;DHT22;9648;51.130;13.978;2023-04-19T01:27:01;7.80;99.90
19031;DHT22;9648;51.130;13.978;2023-04-19T01:29:27;7.80;99.90
19031;DHT22;9648;51.130;13.978;2023-04-19T01:31:54;7.80;99.90
19031;DHT22;9648;51.130;13.978;2023-04-19T01:34:21;7.80;99.90
19031;DHT22;9648;51.130;13.978;2023-04-19T01:36:48;7.70;99.90
19031;DHT22;9648;51.130;13.978;2023-04-19T01:39:15;7.70;99.90
19031;DHT22;9648;51.130;13.978;2023-04-19T01:41:43;7.60;99.90
19031;DHT22;9648;51.130;13.978;2023-04-19T01:44:10;7.60;99.90
19031;DHT22;9648;51.130;13.978;2023-04-19T01:46:37;7.60;99.90
19031;DHT22;9648;51.130;13.978;2023-04-19T01:49:07;7.60;99.90
19031;DHT22;9648;51.130;13.978;2023-04-19T01:51:34;7.50;99.90
19031;DHT22;9648;51.130;13.978;2023-04-19T01:54:00;7.40;99.90
19031;DHT22;9648;51.130;13.978;2023-04-19T01:56:27;7.40;99.90
19031;DHT22;9648;51.130;13.978;2023-04-19T01:58:55;7.50;99.90
19031;DHT22;9648;51.130;13.978;2023-04-19T02:01:22;7.50;99.90
19031;DHT22;9648;51.130;13.978;2023-04-19T02:03:49;7.50;99.90
19031;DHT22;9648;51.130;13.978;2023-04-19T02:06:15;7.40;99.90
19031;DHT22;9648;51.130;13.978;2023-04-19T02:08:45;7.40;99.90
19031;DHT22;9648;51.130;13.978;2023-04-19T02:11:12;7.40;99.90
19031;DHT22;9648;51.130;13.978;2023-04-19T02:13:40;7.40;99.90
19031;DHT22;9648;51.130;13.978;2023-04-19T02:16:09;7.30;99.90
19031;DHT22;9648;51.130;13.978;2023-04-19T02:18:36;7.30;99.90
19031;DHT22;9648;51.130;13.978;2023-04-19T02:21:04;7.30;99.90
19031;DHT22;9648;51.130;13.978;2023-04-19T02:23:31;7.30;99.90
19031;DHT22;9648;51.130;13.978;2023-04-19T02:25:58;7.30;99.90
19031;DHT22;9648;51.130;13.978;2023-04-19T02:28:25;7.30;99.90
19031;DHT22;9648;51.130;13.978;2023-04-19T02:30:52;7.20;99.90
19031;DHT22;9648;51.130;13.978;2023-04-19T02:33:21;7.20;99.90
19031;DHT22;9648;51.130;13.978;2023-04-19T02:35:51;7.30;99.90
19031;DHT22;9648;51.130;13.978;2023-04-19T02:38:17;7.30;99.90
19031;DHT22;9648;51.130;13.978;2023-04-19T02:40:44;7.30;99.90
19031;DHT22;9648;51.130;13.978;2023-04-19T02:43:11;7.30;99.90
19031;DHT22;9648;51.130;13.978;2023-04-19T02:45:37;7.30;99.90
19031;DHT22;9648;51.130;13.978;2023-04-19T02:48:08;7.20;99.90
19031;DHT22;9648;51.130;13.978;2023-04-19T02:50:37;7.20;99.90
19031;DHT22;9648;51.130;13.978;2023-04-19T02:53:04;7.20;99.90
19031;DHT22;9648;51.130;13.978;2023-04-19T02:55:31;7.20;99.90
19031;DHT22;9648;51.130;13.978;2023-04-19T02:57:58;7.20;99.90
19031;DHT22;9648;51.130;13.978;2023-04-19T03:00:25;7.20;99.90
19031;DHT22;9648;51.130;13.978;2023-04-19T03:02:51;7.10;99.90
19031;DHT22;9648;51.130;13.978;2023-04-19T03:05:20;7.10;99.90
19031;DHT22;9648;51.130;13.978;2023-04-19T03:07:48;7.10;99.90
19031;DHT22;9648;51.130;13.978;2023-04-19T03:10:15;7.10;99.90
19031;DHT22;9648;51.130;13.978;2023-04-19T03:12:42;7.10;99.90
19031;DHT22;9648;51.130;13.978;2023-04-19T03:15:10;7.10;99.90
19031;DHT22;9648;51.130;13.978;2023-04-19T03:17:36;7.10;99.90
19031;DHT22;9648;51.130;13.978;2023-04-19T03:20:07;7.10;99.90
19031;DHT22;9648;51.130;13.978;2023-04-19T03:22:36;7.00;99.90
19031;DHT22;9648;51.130;13.978;2023-04-19T03:25:08;7.00;99.90
19031;DHT22;9648;51.130;13.978;2023-04-19T03:27:36;7.00;99.90
19031;DHT22;9648;51.130;13.978;2023-04-19T03:30:07;6.90;99.90
19031;DHT22;9648;51.130;13.978;2023-04-19T03:32:34;6.80;99.90
19031;DHT22;9648;51.130;13.978;2023-04-19T03:35:01;6.80;99.90
19031;DHT22;9648;51.130;13.978;2023-04-19T03:37:30;6.70;99.90
19031;DHT22;9648;51.130;13.978;2023-04-19T03:39:57;6.70;99.90
19031;DHT22;9648;51.130;13.978;2023-04-19T03:42:25;6.70;99.90
19031;DHT22;9648;51.130;13.978;2023-04-19T03:44:51;6.70;99.90
19031;DHT22;9648;51.130;13.978;2023-04-19T03:47:21;6.60;99.90
19031;DHT22;9648;51.130;13.978;2023-04-19T03:49:48;6.60;99.90
19031;DHT22;9648;51.130;13.978;2023-04-19T03:52:14;6.60;99.90
19031;DHT22;9648;51.130;13.978;2023-04-19T03:54:41;6.60;99.90
19031;DHT22;9648;51.130;13.978;2023-04-19T03:57:08;6.50;99.90
19031;DHT22;9648;51.130;13.978;2023-04-19T03:59:36;6.50;99.90
19031;DHT22;9648;51.130;13.978;2023-04-19T04:02:02;6.50;99.90
19031;DHT22;9648;51.130;13.978;2023-04-19T04:04:29;6.50;99.90
19031;DHT22;9648;51.130;13.978;2023-04-19T04:06:56;6.40;99.90
19031;DHT22;9648;51.130;13.978;2023-04-19T04:09:22;6.50;99.90
19031;DHT22;9648;51.130;13.978;2023-04-19T04:11:49;6.50;99.90
19031;DHT22;9648;51.130;13.978;2023-04-19T04:14:16;6.50;99.90
19031;DHT22;9648;51.130;13.978;2023-04-19T04:16:44;6.40;99.90
19031;DHT22;9648;51.130;13.978;2023-04-19T04:19:11;6.30;99.90
19031;DHT22;9648;51.130;13.978;2023-04-19T04:21:37;6.20;99.90
19031;DHT22;9648;51.130;13.978;2023-04-19T04:24:05;6.20;99.90
19031;DHT22;9648;51.130;13.978;2023-04-19T04:26:32;6.10;99.90
19031;DHT22;9648;51.130;13.978;2023-04-19T04:28:59;6.10;99.90
19031;DHT22;9648;51.130;13.978;2023-04-19T04:31:27;6.00;99.90
19031;DHT22;9648;51.130;13.978;2023-04-19T04:33:55;6.00;99.90
19031;DHT22;9648;51.130;13.978;2023-04-19T04:36:25;6.00;99.90
19031;DHT22;9648;51.130;13.978;2023-04-19T04:38:54;6.00;99.90
19031;DHT22;9648;51.130;13.978;2023-04-19T04:41:21;5.90;99.90
19031;DHT22;9648;51.130;13.978;2023-04-19T04:43:51;6.00;99.90
19031;DHT22;9648;51.130;13.978;2023-04-19T04:46:18;6.00;99.90
19031;DHT22;9648;51.130;13.978;2023-04-19T04:48:44;6.00;99.90
19031;DHT22;9648;51.130;13.978;2023-04-19T04:51:15;6.00;99.90
19031;DHT22;9648;51.130;13.978;2023-04-19T04:53:42;6.00;99.90
19031;DHT22;9648;51.130;13.978;2023-04-19T04:56:09;6.00;99.90
19031;DHT22;9648;51.130;13.978;2023-04-19T04:58:35;5.90;99.90
19031;DHT22;9648;51.130;13.978;2023-04-19T05:01:02;5.90;99.90
19031;DHT22;9648;51.130;13.978;2023-04-19T05:03:29;5.80;99.90
19031;DHT22;9648;51.130;13.978;2023-04-19T05:05:56;5.70;99.90
19031;DHT22;9648;51.130;13.978;2023-04-19T05:08:27;5.60;99.90
19031;DHT22;9648;51.130;13.978;2023-04-19T05:10:54;5.60;99.90
19031;DHT22;9648;51.130;13.978;2023-04-19T05:13:20;5.50;99.90
19031;DHT22;9648;51.130;13.978;2023-04-19T05:15:47;5.50;99.90
19031;DHT22;9648;51.130;13.978;2023-04-19T05:18:14;5.40;99.90
19031;DHT22;9648;51.130;13.978;2023-04-19T05:20:41;5.40;99.90
19031;DHT22;9648;51.130;13.978;2023-04-19T05:23:08;5.30;99.90
19031;DHT22;9648;51.130;13.978;2023-04-19T05:25:37;5.20;99.90
19031;DHT22;9648;51.130;13.978;2023-04-19T05:28:04;5.10;99.90
19031;DHT22;9648;51.130;13.978;2023-04-19T05:30:30;5.10;99.90
19031;DHT22;9648;51.130;13.978;2023-04-19T05:32:57;5.20;99.90
19031;DHT22;9648;51.130;13.978;2023-04-19T05:35:24;5.20;99.90
19031;DHT22;9648;51.130;13.978;2023-04-19T05:37:54;5.30;99.90
19031;DHT22;9648;51.130;13.978;2023-04-19T05:40:23;5.30;99.90
19031;DHT22;9648;51.130;13.978;2023-04-19T05:42:51;5.30;99.90
19031;DHT22;9648;51.130;13.978;2023-04-19T05:45:21;5.20;99.90
19031;DHT22;9648;51.130;13.978;2023-04-19T05:47:48;5.10;99.90
19031;DHT22;9648;51.130;13.978;2023-04-19T05:50:15;5.20;99.90
19031;DHT22;9648;51.130;13.978;2023-04-19T05:52:45;5.20;99.90
19031;DHT22;9648;51.130;13.978;2023-04-19T05:55:14;5.40;99.90
19031;DHT22;9648;51.130;13.978;2023-04-19T05:57:42;5.40;99.90
19031;DHT22;9648;51.130;13.978;2023-04-19T06:00:11;5.20;99.90
19031;DHT22;9648;51.130;13.978;2023-04-19T06:02:38;5.20;99.90
19031;DHT22;9648;51.130;13.978;2023-04-19T06:05:05;5.20;99.90
19031;DHT22;9648;51.130;13.978;2023-04-19T06:07:32;5.20;99.90
19031;DHT22;9648;51.130;13.978;2023-04-19T06:09:59;5.10;99.90
19031;DHT22;9648;51.130;13.978;2023-04-19T06:12:26;5.20;99.90
19031;DHT22;9648;51.130;13.978;2023-04-19T06:14:53;5.20;99.90
19031;DHT22;9648;51.130;13.978;2023-04-19T06:17:21;5.20;99.90
19031;DHT22;9648;51.130;13.978;2023-04-19T06:19:49;5.30;99.90
19031;DHT22;9648;51.130;13.978;2023-04-19T06:22:19;5.40;99.90
19031;DHT22;9648;51.130;13.978;2023-04-19T06:24:46;5.40;99.90
19031;DHT22;9648;51.130;13.978;2023-04-19T06:27:15;5.40;99.90
19031;DHT22;9648;51.130;13.978;2023-04-19T06:29:42;5.40;99.90
19031;DHT22;9648;51.130;13.978;2023-04-19T06:32:09;5.40;99.90
19031;DHT22;9648;51.130;13.978;2023-04-19T06:34:37;5.40;99.90
19031;DHT22;9648;51.130;13.978;2023-04-19T06:37:07;5.30;99.90
19031;DHT22;9648;51.130;13.978;2023-04-19T06:39:33;5.40;99.90
19031;DHT22;9648;51.130;13.978;2023-04-19T06:42:00;5.50;99.90
19031;DHT22;9648;51.130;13.978;2023-04-19T06:44:28;5.60;99.90
19031;DHT22;9648;51.130;13.978;2023-04-19T06:46:55;5.60;99.90
19031;DHT22;9648;51.130;13.978;2023-04-19T06:49:22;5.60;99.90
19031;DHT22;9648;51.130;13.978;2023-04-19T06:51:53;5.60;99.90
19031;DHT22;9648;51.130;13.978;2023-04-19T06:54:19;5.60;99.90
19031;DHT22;9648;51.130;13.978;2023-04-19T06:56:48;5.60;99.90
19031;DHT22;9648;51.130;13.978;2023-04-19T06:59:17;5.70;99.90
19031;DHT22;9648;51.130;13.978;2023-04-19T07:01:47;5.70;99.90
19031;DHT22;9648;51.130;13.978;2023-04-19T07:04:16;5.70;99.90
19031;DHT22;9648;51.130;13.978;2023-04-19T07:06:46;5.70;99.90
19031;DHT22;9648;51.130;13.978;2023-04-19T07:09:15;5.70;99.90
19031;DHT22;9648;51.130;13.978;2023-04-19T07:11:41;5.70;99.90
19031;DHT22;9648;51.130;13.978;2023-04-19T07:14:08;5.70;99.90
19031;DHT22;9648;51.130;13.978;2023-04-19T07:16:36;5.80;99.90
19031;DHT22;9648;51.130;13.978;2023-04-19T07:19:02;5.80;99.90
19031;DHT22;9648;51.130;13.978;2023-04-19T07:21:32;5.90;99.90
19031;DHT22;9648;51.130;13.978;2023-04-19T07:23:59;5.90;99.90
19031;DHT22;9648;51.130;13.978;2023-04-19T07:26:27;6.00;99.90
19031;DHT22;9648;51.130;13.978;2023-04-19T07:28:54;6.10;99.90
19031;DHT22;9648;51.130;13.978;2023-04-19T07:31:24;6.10;99.90
19031;DHT22;9648;51.130;13.978;2023-04-19T07:33:51;6.20;99.90
19031;DHT22;9648;51.130;13.978;2023-04-19T07:36:18;6.20;99.90
19031;DHT22;9648;51.130;13.978;2023-04-19T07:38:45;6.20;99.90
19031;DHT22;9648;51.130;13.978;2023-04-19T07:41:11;6.30;99.90
19031;DHT22;9648;51.130;13.978;2023-04-19T07:43:40;6.40;99.90
19031;DHT22;9648;51.130;13.978;2023-04-19T07:46:08;6.50;99.90
19031;DHT22;9648;51.130;13.978;2023-04-19T07:48:35;6.60;99.90
19031;DHT22;9648;51.130;13.978;2023-04-19T07:51:07;6.60;99.90
19031;DHT22;9648;51.130;13.978;2023-04-19T07:53:34;6.70;99.90
19031;DHT22;9648;51.130;13.978;2023-04-19T07:56:01;6.80;99.90
19031;DHT22;9648;51.130;13.978;2023-04-19T07:58:28;6.70;99.90
19031;DHT22;9648;51.130;13.978;2023-04-19T08:00:56;6.80;99.90
19031;DHT22;9648;51.130;13.978;2023-04-19T08:03:23;6.80;99.90
19031;DHT22;9648;51.130;13.978;2023-04-19T08:05:50;6.80;99.90
19031;DHT22;9648;51.130;13.978;2023-04-19T08:08:16;6.80;99.90
19031;DHT22;9648;51.130;13.978;2023-04-19T08:10:43;6.80;99.90
19031;DHT22;9648;51.130;13.978;2023-04-19T08:13:10;6.90;99.90
19031;DHT22;9648;51.130;13.978;2023-04-19T08:15:37;7.00;99.90
19031;DHT22;9648;51.130;13.978;2023-04-19T08:18:05;7.10;99.90
19031;DHT22;9648;51.130;13.978;2023-04-19T08:20:32;7.20;99.90
19031;DHT22;9648;51.130;13.978;2023-04-19T08:22:59;7.30;99.90
19031;DHT22;9648;51.130;13.978;2023-04-19T08:25:26;7.40;99.90
19031;DHT22;9648;51.130;13.978;2023-04-19T08:27:55;7.50;99.90
19031;DHT22;9648;51.130;13.978;2023-04-19T08:30:25;7.60;99.90
19031;DHT22;9648;51.130;13.978;2023-04-19T08:32:52;7.60;99.90
19031;DHT22;9648;51.130;13.978;2023-04-19T08:35:23;7.70;99.90
19031;DHT22;9648;51.130;13.978;2023-04-19T08:37:50;7.70;99.90
19031;DHT22;9648;51.130;13.978;2023-04-19T08:40:20;7.90;99.90
19031;DHT22;9648;51.130;13.978;2023-04-19T08:42:47;8.10;99.90
19031;DHT22;9648;51.130;13.978;2023-04-19T08:45:18;8.00;99.90
19031;DHT22;9648;51.130;13.978;2023-04-19T08:47:46;8.10;99.90
19031;DHT22;9648;51.130;13.978;2023-04-19T08:50:14;8.20;99.90
19031;DHT22;9648;51.130;13.978;2023-04-19T08:52:45;8.30;99.90
19031;DHT22;9648;51.130;13.978;2023-04-19T08:55:15;8.50;99.90
19031;DHT22;9648;51.130;13.978;2023-04-19T08:57:42;8.70;99.90
19031;DHT22;9648;51.130;13.978;2023-04-19T09:00:10;8.70;99.90
19031;DHT22;9648;51.130;13.978;2023-04-19T09:02:47;8.60;99.90
19031;DHT22;9648;51.130;13.978;2023-04-19T09:05:18;8.40;99.90
19031;DHT22;9648;51.130;13.978;2023-04-19T09:07:50;8.40;99.90
19031;DHT22;9648;51.130;13.978;2023-04-19T09:10:20;8.40;99.90
19031;DHT22;9648;51.130;13.978;2023-04-19T09:13:00;8.40;99.90
19031;DHT22;9648;51.130;13.978;2023-04-19T09:15:35;8.20;99.90
19031;DHT22;9648;51.130;13.978;2023-04-19T09:18:04;8.20;99.90
19031;DHT22;9648;51.130;13.978;2023-04-19T09:20:35;8.30;99.90
19031;DHT22;9648;51.130;13.978;2023-04-19T09:23:04;8.30;99.90
19031;DHT22;9648;51.130;13.978;2023-04-19T09:25:31;8.40;99.90
19031;DHT22;9648;51.130;13.978;2023-04-19T09:28:08;8.50;99.90
19031;DHT22;9648;51.130;13.978;2023-04-19T09:30:35;8.70;99.90
19031;DHT22;9648;51.130;13.978;2023-04-19T09:33:02;8.80;99.90
19031;DHT22;9648;51.130;13.978;2023-04-19T09:35:38;8.70;99.90
19031;DHT22;9648;51.130;13.978;2023-04-19T09:38:07;8.90;99.90
19031;DHT22;9648;51.130;13.978;2023-04-19T09:40:34;9.10;99.90
19031;DHT22;9648;51.130;13.978;2023-04-19T09:43:01;9.30;99.90
19031;DHT22;9648;51.130;13.978;2023-04-19T09:45:39;9.20;99.90
19031;DHT22;9648;51.130;13.978;2023-04-19T09:48:07;9.30;99.90
19031;DHT22;9648;51.130;13.978;2023-04-19T09:50:34;9.20;99.90
19031;DHT22;9648;51.130;13.978;2023-04-19T09:53:02;9.50;99.90
19031;DHT22;9648;51.130;13.978;2023-04-19T09:55:30;9.60;99.90
19031;DHT22;9648;51.130;13.978;2023-04-19T09:57:57;9.50;99.90
19031;DHT22;9648;51.130;13.978;2023-04-19T10:00:27;9.60;99.90
19031;DHT22;9648;51.130;13.978;2023-04-19T10:02:56;9.40;99.90
19031;DHT22;9648;51.130;13.978;2023-04-19T10:05:25;9.40;99.90
19031;DHT22;9648;51.130;13.978;2023-04-19T10:07:55;9.50;99.90
19031;DHT22;9648;51.130;13.978;2023-04-19T10:10:29;9.40;99.90
19031;DHT22;9648;51.130;13.978;2023-04-19T10:12:58;9.50;99.90
19031;DHT22;9648;51.130;13.978;2023-04-19T10:15:26;9.60;99.90
19031;DHT22;9648;51.130;13.978;2023-04-19T10:17:54;9.70;99.90
19031;DHT22;9648;51.130;13.978;2023-04-19T10:20:24;9.40;99.90
19031;DHT22;9648;51.130;13.978;2023-04-19T10:22:52;9.50;99.90
19031;DHT22;9648;51.130;13.978;2023-04-19T10:25:27;9.50;99.90
19031;DHT22;9648;51.130;13.978;2023-04-19T10:27:56;9.60;99.90
19031;DHT22;9648;51.130;13.978;2023-04-19T10:30:26;9.60;99.90
19031;DHT22;9648;51.130;13.978;2023-04-19T10:32:55;9.70;99.90
19031;DHT22;9648;51.130;13.978;2023-04-19T10:35:26;9.70;99.90
19031;DHT22;9648;51.130;13.978;2023-04-19T10:38:08;9.50;99.90
19031;DHT22;9648;51.130;13.978;2023-04-19T10:40:57;9.30;99.90
19031;DHT22;9648;51.130;13.978;2023-04-19T10:43:27;9.10;99.90
19031;DHT22;9648;51.130;13.978;2023-04-19T10:45:58;9.20;99.90
19031;DHT22;9648;51.130;13.978;2023-04-19T10:48:33;9.20;99.90
19031;DHT22;9648;51.130;13.978;2023-04-19T10:51:00;9.00;99.90
19031;DHT22;9648;51.130;13.978;2023-04-19T10:53:44;9.20;99.90
19031;DHT22;9648;51.130;13.978;2023-04-19T10:56:12;9.50;99.90
19031;DHT22;9648;51.130;13.978;2023-04-19T10:59:15;9.70;99.90
19031;DHT22;9648;51.130;13.978;2023-04-19T11:01:53;9.80;99.90
19031;DHT22;9648;51.130;13.978;2023-04-19T11:04:22;9.80;99.90
19031;DHT22;9648;51.130;13.978;2023-04-19T11:07:02;9.70;99.90
19031;DHT22;9648;51.130;13.978;2023-04-19T11:09:31;9.60;99.90
19031;DHT22;9648;51.130;13.978;2023-04-19T11:12:01;9.70;99.90
19031;DHT22;9648;51.130;13.978;2023-04-19T11:14:32;9.60;99.90
19031;DHT22;9648;51.130;13.978;2023-04-19T11:16:59;9.50;99.90
19031;DHT22;9648;51.130;13.978;2023-04-19T11:19:26;9.50;99.90
19031;DHT22;9648;51.130;13.978;2023-04-19T11:21:57;9.30;99.90
19031;DHT22;9648;51.130;13.978;2023-04-19T11:24:24;9.10;99.90
19031;DHT22;9648;51.130;13.978;2023-04-19T11:26:55;9.10;99.90
19031;DHT22;9648;51.130;13.978;2023-04-19T11:29:23;9.20;99.90
19031;DHT22;9648;51.130;13.978;2023-04-19T11:31:51;9.10;99.90
19031;DHT22;9648;51.130;13.978;2023-04-19T11:34:21;9.00;99.90
19031;DHT22;9648;51.130;13.978;2023-04-19T11:36:51;8.70;99.90
19031;DHT22;9648;51.130;13.978;2023-04-19T11:39:18;8.60;99.90
19031;DHT22;9648;51.130;13.978;2023-04-19T11:41:48;8.60;99.90
19031;DHT22;9648;51.130;13.978;2023-04-19T11:44:16;8.50;99.90
19031;DHT22;9648;51.130;13.978;2023-04-19T11:46:58;8.40;99.90
19031;DHT22;9648;51.130;13.978;2023-04-19T11:49:26;8.50;99.90
19031;DHT22;9648;51.130;13.978;2023-04-19T11:51:57;8.70;99.90
19031;DHT22;9648;51.130;13.978;2023-04-19T11:54:27;8.80;99.90
19031;DHT22;9648;51.130;13.978;2023-04-19T11:57:01;9.00;99.90
19031;DHT22;9648;51.130;13.978;2023-04-19T12:00:02;9.10;99.90
19031;DHT22;9648;51.130;13.978;2023-04-19T12:02:36;9.30;99.90
19031;DHT22;9648;51.130;13.978;2023-04-19T12:05:22;9.40;99.90
19031;DHT22;9648;51.130;13.978;2023-04-19T12:08:08;9.40;99.90
19031;DHT22;9648;51.130;13.978;2023-04-19T12:10:35;9.40;99.90
19031;DHT22;9648;51.130;13.978;2023-04-19T12:13:15;9.40;99.90
19031;DHT22;9648;51.130;13.978;2023-04-19T12:15:42;9.50;99.90
19031;DHT22;9648;51.130;13.978;2023-04-19T12:18:11;9.50;99.90
19031;DHT22;9648;51.130;13.978;2023-04-19T12:20:44;9.60;99.90
19031;DHT22;9648;51.130;13.978;2023-04-19T12:23:11;9.90;99.90
19031;DHT22;9648;51.130;13.978;2023-04-19T12:25:39;9.90;99.90
19031;DHT22;9648;51.130;13.978;2023-04-19T12:28:06;9.80;99.90
19031;DHT22;9648;51.130;13.978;2023-04-19T12:30:33;9.60;99.90
19031;DHT22;9648;51.130;13.978;2023-04-19T12:33:00;9.60;99.90
19031;DHT22;9648;51.130;13.978;2023-04-19T12:35:29;9.50;99.90
19031;DHT22;9648;51.130;13.978;2023-04-19T12:37:57;9.50;99.90
19031;DHT22;9648;51.130;13.978;2023-04-19T12:40:25;9.30;99.90
19031;DHT22;9648;51.130;13.978;2023-04-19T12:42:52;9.20;99.90
19031;DHT22;9648;51.130;13.978;2023-04-19T12:45:19;9.20;99.90
19031;DHT22;9648;51.130;13.978;2023-04-19T12:47:47;9.10;99.90
19031;DHT22;9648;51.130;13.978;2023-04-19T12:50:14;9.00;99.90
19031;DHT22;9648;51.130;13.978;2023-04-19T12:52:43;9.10;99.90
19031;DHT22;9648;51.130;13.978;2023-04-19T12:55:10;9.30;99.90
19031;DHT22;9648;51.130;13.978;2023-04-19T12:57:37;9.40;99.90
19031;DHT22;9648;51.130;13.978;2023-04-19T13:00:05;9.30;99.90
19031;DHT22;9648;51.130;13.978;2023-04-19T13:02:33;9.30;99.90
19031;DHT22;9648;51.130;13.978;2023-04-19T13:05:04;9.50;99.90
19031;DHT22;9648;51.130;13.978;2023-04-19T13:07:31;9.70;99.90
19031;DHT22;9648;51.130;13.978;2023-04-19T13:09:59;10.10;99.90
19031;DHT22;9648;51.130;13.978;2023-04-19T13:12:27;10.50;99.90
19031;DHT22;9648;51.130;13.978;2023-04-19T13:14:54;10.50;99.90
19031;DHT22;9648;51.130;13.978;2023-04-19T13:17:23;10.30;99.60
19031;DHT22;9648;51.130;13.978;2023-04-19T13:19:50;10.10;99.90
19031;DHT22;9648;51.130;13.978;2023-04-19T13:22:17;9.80;99.90
19031;DHT22;9648;51.130;13.978;2023-04-19T13:24:43;9.50;99.90
19031;DHT22;9648;51.130;13.978;2023-04-19T13:27:12;9.30;99.90
19031;DHT22;9648;51.130;13.978;2023-04-19T13:29:38;9.20;99.90
19031;DHT22;9648;51.130;13.978;2023-04-19T13:32:05;9.20;99.90
19031;DHT22;9648;51.130;13.978;2023-04-19T13:34:36;9.30;99.90
19031;DHT22;9648;51.130;13.978;2023-04-19T13:37:03;9.40;99.90
19031;DHT22;9648;51.130;13.978;2023-04-19T13:39:30;9.40;99.90
19031;DHT22;9648;51.130;13.978;2023-04-19T13:41:57;9.80;99.90
19031;DHT22;9648;51.130;13.978;2023-04-19T13:44:37;9.80;99.90
19031;DHT22;9648;51.130;13.978;2023-04-19T13:47:03;9.60;99.90
19031;DHT22;9648;51.130;13.978;2023-04-19T13:49:30;8.90;99.90
19031;DHT22;9648;51.130;13.978;2023-04-19T13:51:57;8.30;99.90
19031;DHT22;9648;51.130;13.978;2023-04-19T13:54:24;7.70;99.90
19031;DHT22;9648;51.130;13.978;2023-04-19T13:56:54;7.10;99.90
19031;DHT22;9648;51.130;13.978;2023-04-19T13:59:22;6.80;99.90
19031;DHT22;9648;51.130;13.978;2023-04-19T14:01:51;6.80;99.90
19031;DHT22;9648;51.130;13.978;2023-04-19T14:04:20;6.90;99.90
19031;DHT22;9648;51.130;13.978;2023-04-19T14:06:47;6.80;99.90
19031;DHT22;9648;51.130;13.978;2023-04-19T14:09:14;6.70;99.90
19031;DHT22;9648;51.130;13.978;2023-04-19T14:11:41;6.70;99.90
19031;DHT22;9648;51.130;13.978;2023-04-19T14:14:07;6.60;99.90
19031;DHT22;9648;51.130;13.978;2023-04-19T14:16:34;6.60;99.90
19031;DHT22;9648;51.130;13.978;2023-04-19T14:19:02;6.50;99.90
19031;DHT22;9648;51.130;13.978;2023-04-19T14:21:32;6.50;99.90
19031;DHT22;9648;51.130;13.978;2023-04-19T14:23:59;6.40;99.90
19031;DHT22;9648;51.130;13.978;2023-04-19T14:26:25;6.70;99.90
19031;DHT22;9648;51.130;13.978;2023-04-19T14:28:52;7.00;99.90
19031;DHT22;9648;51.130;13.978;2023-04-19T14:31:19;7.00;99.90
19031;DHT22;9648;51.130;13.978;2023-04-19T14:33:48;6.70;99.90
19031;DHT22;9648;51.130;13.978;2023-04-19T14:36:16;6.50;99.90
19031;DHT22;9648;51.130;13.978;2023-04-19T14:38:46;6.60;99.90
19031;DHT22;9648;51.130;13.978;2023-04-19T14:41:13;6.70;99.90
19031;DHT22;9648;51.130;13.978;2023-04-19T14:43:39;6.80;99.90
19031;DHT22;9648;51.130;13.978;2023-04-19T14:46:06;6.70;99.90
19031;DHT22;9648;51.130;13.978;2023-04-19T14:48:33;6.60;99.90
19031;DHT22;9648;51.130;13.978;2023-04-19T14:51:00;6.70;99.90
19031;DHT22;9648;51.130;13.978;2023-04-19T14:53:28;6.70;99.90
19031;DHT22;9648;51.130;13.978;2023-04-19T14:55:57;6.60;99.90
19031;DHT22;9648;51.130;13.978;2023-04-19T14:58:24;6.50;99.90
19031;DHT22;9648;51.130;13.978;2023-04-19T15:00:51;6.30;99.90
19031;DHT22;9648;51.130;13.978;2023-04-19T15:03:18;6.30;99.90
19031;DHT22;9648;51.130;13.978;2023-04-19T15:05:45;6.20;99.90
19031;DHT22;9648;51.130;13.978;2023-04-19T15:08:11;6.20;99.90
19031;DHT22;9648;51.130;13.978;2023-04-19T15:10:39;6.10;99.90
19031;DHT22;9648;51.130;13.978;2023-04-19T15:13:06;6.10;99.90
19031;DHT22;9648;51.130;13.978;2023-04-19T15:15:33;6.10;99.90
19031;DHT22;9648;51.130;13.978;2023-04-19T15:18:00;6.20;99.90
19031;DHT22;9648;51.130;13.978;2023-04-19T15:20:27;6.40;99.90
19031;DHT22;9648;51.130;13.978;2023-04-19T15:22:53;6.60;99.90
19031;DHT22;9648;51.130;13.978;2023-04-19T15:25:20;6.80;99.90
19031;DHT22;9648;51.130;13.978;2023-04-19T15:27:51;7.00;99.90
19031;DHT22;9648;51.130;13.978;2023-04-19T15:30:18;7.00;99.90
19031;DHT22;9648;51.130;13.978;2023-04-19T15:32:45;7.00;99.90
19031;DHT22;9648;51.130;13.978;2023-04-19T15:35:11;6.90;99.90
19031;DHT22;9648;51.130;13.978;2023-04-19T15:37:38;6.80;99.90
19031;DHT22;9648;51.130;13.978;2023-04-19T15:40:09;6.60;99.90
19031;DHT22;9648;51.130;13.978;2023-04-19T15:42:37;6.50;99.90
19031;DHT22;9648;51.130;13.978;2023-04-19T15:45:06;6.40;99.90
19031;DHT22;9648;51.130;13.978;2023-04-19T15:47:33;6.40;99.90
19031;DHT22;9648;51.130;13.978;2023-04-19T15:50:00;6.30;99.90
19031;DHT22;9648;51.130;13.978;2023-04-19T15:52:28;6.20;99.90